Time;durP1;ratioP1;P1;durP2;ratioP2;P2;SDS_P1;SDS_P2;PMS_P1;PMS_P2;Temp;Humidity;BMP_temperature;BMP_pressure;BME280_temperature;BME280_humidity;BME280_pressure;Samples;Min_cycle;Max_cycle;Signal;HPM_P1;HPM_P2
2023/04/04 00:01:05;;;;;;;8.45;2.15;;;2.50;99.90;;;;;;5031050;28;20565;-61
2023/04/04 00:03:31;;;;;;;5.15;2.38;;;2.40;99.90;;;;;;4998025;28;20034;-61
2023/04/04 00:05:57;;;;;;;5.55;2.50;;;2.40;99.90;;;;;;5013805;28;20124;-61
2023/04/04 00:08:23;;;;;;;5.75;2.45;;;2.40;99.90;;;;;;5031585;28;20125;-61
2023/04/04 00:10:48;;;;;;;5.07;1.90;;;2.40;99.90;;;;;;5014493;28;20402;-61
2023/04/04 00:13:14;;;;;;;4.90;2.10;;;2.30;99.90;;;;;;5012976;28;20048;-61
2023/04/04 00:15:40;;;;;;;7.88;2.10;;;2.30;99.90;;;;;;5014461;28;20128;-61
2023/04/04 00:18:06;;;;;;;6.40;2.15;;;2.30;99.90;;;;;;5035606;28;20449;-61
2023/04/04 00:20:32;;;;;;;6.13;1.90;;;2.30;99.90;;;;;;5050590;28;20139;-61
2023/04/04 00:22:57;;;;;;;6.03;2.20;;;2.30;99.90;;;;;;5051420;28;20044;-62
2023/04/04 00:25:24;;;;;;;5.18;2.03;;;2.20;99.90;;;;;;5051192;28;20116;-62
2023/04/04 00:27:50;;;;;;;5.85;2.20;;;2.20;99.90;;;;;;5016594;28;20041;-61
2023/04/04 00:30:16;;;;;;;5.05;1.83;;;2.10;99.90;;;;;;5033256;28;20083;-62
2023/04/04 00:32:41;;;;;;;6.10;1.90;;;2.10;99.90;;;;;;5033900;28;20072;-62
2023/04/04 00:35:07;;;;;;;5.68;2.13;;;2.10;99.90;;;;;;5019683;28;20037;-62
2023/04/04 00:37:34;;;;;;;4.30;1.73;;;2.10;99.90;;;;;;4997285;28;20120;-62
2023/04/04 00:40:00;;;;;;;3.67;1.55;;;2.00;99.90;;;;;;5031779;28;20241;-61
2023/04/04 00:42:26;;;;;;;4.93;1.95;;;2.00;99.90;;;;;;5012279;28;20062;-62
2023/04/04 00:44:52;;;;;;;5.93;2.22;;;1.90;99.90;;;;;;4997511;28;20128;-62
2023/04/04 00:47:22;;;;;;;5.35;2.38;;;1.90;99.90;;;;;;4997078;28;20129;-61
2023/04/04 00:49:47;;;;;;;5.15;2.22;;;1.80;99.90;;;;;;5013169;28;20045;-61
2023/04/04 00:52:13;;;;;;;8.70;2.00;;;1.80;99.90;;;;;;5031381;28;20033;-61
2023/04/04 00:54:39;;;;;;;4.38;1.90;;;1.70;99.90;;;;;;5034015;28;20124;-61
2023/04/04 00:57:07;;;;;;;5.00;1.90;;;1.70;99.90;;;;;;5034255;28;20124;-61
2023/04/04 00:59:33;;;;;;;6.97;2.03;;;1.60;99.90;;;;;;5017542;28;20454;-61
2023/04/04 01:01:59;;;;;;;6.30;1.95;;;1.60;99.90;;;;;;5017355;28;20072;-61
2023/04/04 01:04:28;;;;;;;5.40;2.08;;;1.60;99.90;;;;;;5016127;28;20045;-62
2023/04/04 01:06:54;;;;;;;4.70;1.77;;;1.60;99.90;;;;;;5017349;28;20171;-62
2023/04/04 01:09:20;;;;;;;4.07;1.50;;;1.50;99.90;;;;;;4999379;28;20052;-61
2023/04/04 01:11:46;;;;;;;4.13;1.70;;;1.50;99.90;;;;;;5017608;28;20049;-62
2023/04/04 01:14:12;;;;;;;4.18;1.90;;;1.40;99.90;;;;;;5016936;28;20128;-61
2023/04/04 01:16:38;;;;;;;3.33;1.42;;;1.40;99.90;;;;;;5033468;28;20379;-61
2023/04/04 01:19:08;;;;;;;6.55;2.30;;;1.40;99.90;;;;;;5017106;28;20075;-62
2023/04/04 01:21:35;;;;;;;7.00;2.67;;;1.30;99.90;;;;;;5034626;28;20040;-61
2023/04/04 01:24:02;;;;;;;5.55;1.85;;;1.30;99.90;;;;;;5016463;28;20041;-61
2023/04/04 01:26:28;;;;;;;5.28;2.30;;;1.30;99.90;;;;;;5016781;28;20053;-61
2023/04/04 01:28:55;;;;;;;4.57;1.90;;;1.30;99.90;;;;;;5016802;28;20056;-61
2023/04/04 01:31:28;;;;;;;5.65;2.67;;;1.30;99.90;;;;;;5015370;28;20045;-61
2023/04/04 01:34:03;;;;;;;7.03;2.45;;;1.20;99.90;;;;;;5035645;28;20486;-61
2023/04/04 01:36:42;;;;;;;5.32;1.88;;;1.20;99.90;;;;;;4999931;28;20438;-61
2023/04/04 01:39:23;;;;;;;5.25;2.15;;;1.20;99.90;;;;;;5016001;28;20482;-61
2023/04/04 01:41:49;;;;;;;5.15;2.22;;;1.20;99.90;;;;;;5016348;28;20041;-61
2023/04/04 01:44:17;;;;;;;5.88;2.30;;;1.20;99.90;;;;;;5016127;28;20033;-61
2023/04/04 01:46:43;;;;;;;4.53;2.10;;;1.20;99.90;;;;;;5034348;28;20041;-61
2023/04/04 01:49:09;;;;;;;6.78;2.92;;;1.20;99.90;;;;;;5016671;28;20379;-62
2023/04/04 01:51:35;;;;;;;5.35;2.10;;;1.20;99.90;;;;;;5015621;28;20490;-61
2023/04/04 01:54:02;;;;;;;5.88;2.25;;;1.20;99.90;;;;;;5000067;28;20045;-61
2023/04/04 01:56:27;;;;;;;4.97;2.33;;;1.20;99.90;;;;;;5015639;28;20485;-61
2023/04/04 01:58:53;;;;;;;6.78;3.08;;;1.20;99.90;;;;;;5015657;28;20091;-61
2023/04/04 02:01:19;;;;;;;7.85;3.60;;;1.20;99.90;;;;;;5033641;28;20049;-61
2023/04/04 02:03:44;;;;;;;7.47;3.20;;;1.20;99.90;;;;;;5015884;28;20422;-61
2023/04/04 02:06:10;;;;;;;6.93;2.55;;;1.20;99.90;;;;;;4998793;28;20045;-61
2023/04/04 02:08:37;;;;;;;7.10;2.50;;;1.20;99.90;;;;;;5016134;28;20052;-61
2023/04/04 02:11:02;;;;;;;5.50;2.40;;;1.20;99.90;;;;;;5016188;28;20052;-61
2023/04/04 02:13:28;;;;;;;7.63;2.47;;;1.20;99.90;;;;;;5032658;28;20124;-61
2023/04/04 02:15:54;;;;;;;5.85;2.67;;;1.20;99.90;;;;;;5015875;28;20505;-61
2023/04/04 02:18:19;;;;;;;6.70;2.97;;;1.20;99.90;;;;;;5015254;28;20049;-61
2023/04/04 02:20:45;;;;;;;6.47;3.90;;;1.20;99.90;;;;;;5015110;28;20034;-61
2023/04/04 02:23:11;;;;;;;9.45;2.78;;;1.20;99.90;;;;;;5015569;28;20037;-61
2023/04/04 02:25:36;;;;;;;10.15;3.10;;;1.20;99.90;;;;;;5029064;28;20075;-61
2023/04/04 02:28:02;;;;;;;9.32;3.22;;;1.20;99.90;;;;;;5052899;28;20037;-62
2023/04/04 02:30:28;;;;;;;6.60;3.03;;;1.20;99.90;;;;;;5034928;28;20051;-61
2023/04/04 02:32:57;;;;;;;7.32;3.53;;;1.20;99.90;;;;;;5035657;28;20047;-61
2023/04/04 02:35:23;;;;;;;9.70;3.58;;;1.20;99.90;;;;;;5034055;28;20049;-61
2023/04/04 02:37:49;;;;;;;7.88;3.13;;;1.20;99.90;;;;;;5035219;28;20045;-61
2023/04/04 02:40:14;;;;;;;6.93;3.25;;;1.20;99.90;;;;;;5052671;28;20410;-61
2023/04/04 02:42:43;;;;;;;8.32;3.58;;;1.20;99.90;;;;;;5034037;28;20515;-61
2023/04/04 02:45:10;;;;;;;5.32;2.88;;;1.20;99.90;;;;;;5052885;28;20037;-61
2023/04/04 02:47:37;;;;;;;6.88;3.33;;;1.20;99.90;;;;;;5018023;28;20049;-62
2023/04/04 02:50:02;;;;;;;7.13;3.97;;;1.10;99.90;;;;;;5052946;28;20040;-62
2023/04/04 02:52:28;;;;;;;7.57;3.67;;;1.20;99.90;;;;;;5034143;28;20095;-61
2023/04/04 02:54:54;;;;;;;8.82;3.70;;;1.20;99.90;;;;;;5051883;28;20044;-61
2023/04/04 02:57:20;;;;;;;7.93;3.58;;;1.20;99.90;;;;;;5034307;28;20048;-61
2023/04/04 02:59:46;;;;;;;8.40;3.38;;;1.20;99.90;;;;;;5034994;28;20040;-62
2023/04/04 03:02:11;;;;;;;7.90;3.47;;;1.20;99.90;;;;;;5017437;28;20131;-61
2023/04/04 03:04:37;;;;;;;8.80;4.22;;;1.20;99.90;;;;;;5034620;28;20056;-61
2023/04/04 03:07:03;;;;;;;8.55;3.83;;;1.20;99.90;;;;;;5052142;28;20037;-61
2023/04/04 03:09:29;;;;;;;9.43;4.20;;;1.10;99.90;;;;;;5051236;28;20056;-61
2023/04/04 03:11:55;;;;;;;9.35;4.00;;;1.10;99.90;;;;;;5052375;28;20048;-61
2023/04/04 03:14:21;;;;;;;8.98;4.07;;;1.10;99.90;;;;;;5034141;28;20045;-61
2023/04/04 03:16:51;;;;;;;8.75;4.43;;;1.10;99.90;;;;;;5033061;28;20083;-62
2023/04/04 03:19:16;;;;;;;8.32;3.42;;;1.10;99.90;;;;;;5051530;28;20509;-62
2023/04/04 03:21:42;;;;;;;10.80;3.85;;;1.10;99.90;;;;;;5034681;28;20037;-61
2023/04/04 03:24:07;;;;;;;7.75;3.92;;;1.10;99.90;;;;;;5017113;28;20137;-61
2023/04/04 03:26:33;;;;;;;9.70;4.38;;;1.10;99.90;;;;;;5052277;28;20449;-61
2023/04/04 03:28:59;;;;;;;8.40;5.10;;;1.10;99.90;;;;;;5034781;28;20119;-61
2023/04/04 03:31:25;;;;;;;7.65;4.32;;;1.10;99.90;;;;;;5032721;28;20482;-61
2023/04/04 03:33:50;;;;;;;9.10;4.28;;;1.00;99.90;;;;;;5034573;28;20049;-61
2023/04/04 03:36:16;;;;;;;9.98;3.95;;;1.00;99.90;;;;;;5051573;28;20533;-61
2023/04/04 03:38:42;;;;;;;14.20;4.63;;;1.00;99.90;;;;;;5033556;28;20114;-61
2023/04/04 03:41:07;;;;;;;8.52;4.18;;;1.00;99.90;;;;;;5052008;28;20029;-61
2023/04/04 03:43:33;;;;;;;9.52;4.95;;;1.00;99.90;;;;;;5033810;28;20421;-61
2023/04/04 03:46:03;;;;;;;8.57;4.97;;;1.00;99.90;;;;;;5010749;28;20036;-61
2023/04/04 03:48:29;;;;;;;6.63;3.83;;;1.00;99.90;;;;;;5009449;28;20044;-62
2023/04/04 03:50:58;;;;;;;8.95;3.40;;;0.90;99.90;;;;;;5025337;28;20033;-61
2023/04/04 03:53:25;;;;;;;8.82;4.40;;;0.90;99.90;;;;;;5014043;28;20041;-61
2023/04/04 03:55:52;;;;;;;7.53;3.92;;;0.90;99.90;;;;;;5014563;28;20041;-61
2023/04/04 03:58:18;;;;;;;9.10;4.10;;;0.90;99.90;;;;;;5013305;28;20068;-62
2023/04/04 04:00:44;;;;;;;9.13;4.75;;;0.80;99.90;;;;;;5031981;28;20117;-62
2023/04/04 04:03:09;;;;;;;7.13;4.07;;;0.80;99.90;;;;;;5014319;28;20148;-62
2023/04/04 04:05:35;;;;;;;7.82;3.92;;;0.80;99.90;;;;;;5030936;28;20047;-61
2023/04/04 04:08:01;;;;;;;10.23;4.55;;;0.80;99.90;;;;;;5014270;28;20110;-61
2023/04/04 04:10:27;;;;;;;7.35;3.70;;;0.80;99.90;;;;;;5013680;28;20079;-61
2023/04/04 04:12:52;;;;;;;11.25;5.10;;;0.70;99.90;;;;;;5013656;28;20080;-61
2023/04/04 04:15:18;;;;;;;5.93;3.30;;;0.80;99.90;;;;;;5013746;28;20048;-62
2023/04/04 04:17:43;;;;;;;7.72;4.13;;;0.80;99.90;;;;;;5031852;28;20052;-62
2023/04/04 04:20:10;;;;;;;7.20;4.10;;;0.80;99.90;;;;;;5030079;28;20045;-61
2023/04/04 04:22:36;;;;;;;7.95;4.50;;;0.80;99.90;;;;;;5018039;28;20406;-61
2023/04/04 04:25:02;;;;;;;10.20;4.43;;;0.80;99.90;;;;;;5034695;28;20033;-61
2023/04/04 04:27:29;;;;;;;7.75;4.10;;;0.80;99.90;;;;;;5034747;28;20047;-61
2023/04/04 04:29:55;;;;;;;9.15;4.05;;;0.80;99.90;;;;;;5056265;28;20049;-61
2023/04/04 04:32:21;;;;;;;11.10;4.72;;;0.70;99.90;;;;;;5037491;28;20059;-61
2023/04/04 04:34:46;;;;;;;8.52;4.43;;;0.70;99.90;;;;;;5036526;28;20045;-61
2023/04/04 04:37:12;;;;;;;10.88;4.78;;;0.80;99.90;;;;;;5037416;28;20045;-61
2023/04/04 04:39:38;;;;;;;8.60;4.43;;;0.70;99.90;;;;;;5037432;28;20473;-62
2023/04/04 04:42:04;;;;;;;7.95;3.83;;;0.70;99.90;;;;;;5054195;28;20114;-61
2023/04/04 04:44:29;;;;;;;10.77;5.07;;;0.70;99.90;;;;;;5055194;28;20068;-61
2023/04/04 04:46:55;;;;;;;11.43;5.25;;;0.70;99.90;;;;;;5054885;28;20048;-61
2023/04/04 04:49:21;;;;;;;12.88;6.65;;;0.70;99.90;;;;;;5019921;28;20159;-62
2023/04/04 04:51:48;;;;;;;10.20;5.15;;;0.70;99.90;;;;;;5037713;28;20418;-61
2023/04/04 04:54:13;;;;;;;8.75;5.28;;;0.70;99.90;;;;;;5036266;28;20056;-61
2023/04/04 04:56:39;;;;;;;7.95;4.28;;;0.70;99.90;;;;;;5037132;28;20045;-61
2023/04/04 04:59:06;;;;;;;9.23;5.50;;;0.70;99.90;;;;;;5037098;28;20076;-61
2023/04/04 05:01:31;;;;;;;9.98;5.30;;;0.70;99.90;;;;;;5036025;28;20472;-62
2023/04/04 05:03:57;;;;;;;10.80;6.40;;;0.70;99.90;;;;;;5055058;28;20132;-62
2023/04/04 05:06:23;;;;;;;16.85;8.55;;;0.60;99.90;;;;;;5054404;28;20477;-61
2023/04/04 05:08:49;;;;;;;29.23;12.70;;;0.60;99.90;;;;;;5054200;28;20044;-62
2023/04/04 05:11:15;;;;;;;29.88;14.52;;;0.60;99.90;;;;;;5054475;28;20041;-63
2023/04/04 05:13:40;;;;;;;26.10;12.25;;;0.60;99.90;;;;;;5054944;28;20083;-62
2023/04/04 05:16:06;;;;;;;19.83;10.82;;;0.60;99.90;;;;;;5035351;28;20073;-61
2023/04/04 05:18:32;;;;;;;19.88;10.02;;;0.60;99.90;;;;;;5016881;28;20095;-61
2023/04/04 05:20:58;;;;;;;17.77;8.48;;;0.60;99.90;;;;;;5035061;28;20467;-61
2023/04/04 05:23:23;;;;;;;17.30;8.10;;;0.60;99.90;;;;;;5016002;28;20041;-61
2023/04/04 05:25:53;;;;;;;16.42;8.73;;;0.50;99.90;;;;;;5034641;28;20490;-61
2023/04/04 05:28:19;;;;;;;14.07;7.10;;;0.60;99.90;;;;;;5000046;28;20494;-61
2023/04/04 05:30:45;;;;;;;13.50;5.95;;;0.60;99.90;;;;;;5015975;28;20086;-61
2023/04/04 05:33:11;;;;;;;12.77;6.03;;;0.50;99.90;;;;;;5016597;28;20044;-62
2023/04/04 05:35:37;;;;;;;9.80;5.00;;;0.60;99.90;;;;;;5034461;28;20034;-61
2023/04/04 05:38:03;;;;;;;11.75;5.65;;;0.60;99.90;;;;;;5033662;28;20427;-62
2023/04/04 05:40:29;;;;;;;9.65;6.03;;;0.60;99.90;;;;;;5033218;28;20034;-61
2023/04/04 05:42:55;;;;;;;10.65;6.60;;;0.70;99.90;;;;;;5016489;28;20050;-61
2023/04/04 05:45:22;;;;;;;14.02;6.65;;;0.70;99.90;;;;;;4998777;28;20049;-61
2023/04/04 05:47:47;;;;;;;10.82;6.38;;;0.70;99.90;;;;;;5016609;28;20095;-61
2023/04/04 05:50:13;;;;;;;12.52;6.72;;;0.70;99.90;;;;;;5016585;28;20119;-61
2023/04/04 05:52:39;;;;;;;10.60;6.30;;;0.80;99.90;;;;;;5033158;28;20064;-61
2023/04/04 05:55:05;;;;;;;12.73;6.88;;;0.80;99.90;;;;;;5000116;28;20084;-61
2023/04/04 05:57:31;;;;;;;9.20;5.75;;;0.90;99.90;;;;;;5022921;28;20072;-62
2023/04/04 05:59:57;;;;;;;9.82;5.57;;;1.00;99.90;;;;;;5053983;28;20048;-62
2023/04/04 06:02:23;;;;;;;11.88;7.22;;;1.00;99.90;;;;;;5036021;28;20095;-61
2023/04/04 06:04:49;;;;;;;11.18;7.28;;;1.10;99.90;;;;;;5035435;28;20493;-61
2023/04/04 06:07:15;;;;;;;11.02;6.63;;;1.10;99.90;;;;;;5035498;28;20400;-61
2023/04/04 06:09:41;;;;;;;10.90;6.53;;;1.20;99.90;;;;;;5036232;28;20045;-62
2023/04/04 06:12:10;;;;;;;13.98;8.30;;;1.30;99.90;;;;;;5032886;28;20124;-61
2023/04/04 06:14:36;;;;;;;14.13;7.63;;;1.30;99.90;;;;;;5033447;28;20061;-61
2023/04/04 06:17:03;;;;;;;14.43;8.57;;;1.40;99.90;;;;;;5033395;28;20041;-62
2023/04/04 06:19:29;;;;;;;19.35;10.52;;;1.40;99.90;;;;;;5014837;28;20092;-61
2023/04/04 06:21:55;;;;;;;26.63;16.60;;;1.50;99.90;;;;;;5034000;28;20029;-62
2023/04/04 06:24:21;;;;;;;13.43;8.98;;;1.50;99.90;;;;;;4999176;28;20052;-61
2023/04/04 06:26:50;;;;;;;14.05;7.70;;;1.60;99.90;;;;;;5015623;28;20510;-61
2023/04/04 06:29:17;;;;;;;18.42;10.85;;;1.60;99.90;;;;;;5032769;28;20502;-61
2023/04/04 06:31:43;;;;;;;13.43;6.78;;;1.60;99.90;;;;;;5033726;28;20042;-62
2023/04/04 06:34:08;;;;;;;31.77;21.30;;;1.70;99.90;;;;;;5032627;28;20494;-62
2023/04/04 06:36:34;;;;;;;13.32;8.98;;;1.70;99.90;;;;;;5015507;28;20037;-62
2023/04/04 06:39:00;;;;;;;34.22;21.40;;;1.80;99.90;;;;;;5038662;28;20536;-62
2023/04/04 06:41:26;;;;;;;15.00;10.70;;;1.90;99.90;;;;;;5046036;28;20522;-61
2023/04/04 06:43:51;;;;;;;11.57;7.30;;;2.00;99.90;;;;;;5035046;28;20053;-61
2023/04/04 06:46:17;;;;;;;13.55;7.07;;;2.10;99.90;;;;;;5035148;28;20186;-62
2023/04/04 06:48:43;;;;;;;13.68;8.10;;;2.10;99.90;;;;;;5034541;28;20153;-62
2023/04/04 06:51:10;;;;;;;15.63;5.78;;;2.20;99.90;;;;;;5052612;28;20045;-61
2023/04/04 06:53:36;;;;;;;21.92;11.93;;;2.30;99.90;;;;;;5035199;28;20393;-62
2023/04/04 06:56:03;;;;;;;11.05;5.00;;;2.40;99.90;;;;;;5034037;28;20033;-61
2023/04/04 06:58:29;;;;;;;34.03;17.80;;;2.50;99.90;;;;;;5052550;28;20037;-62
2023/04/04 07:00:58;;;;;;;23.25;13.45;;;2.50;99.90;;;;;;5018134;28;20363;-61
2023/04/04 07:03:24;;;;;;;27.35;13.95;;;2.50;99.90;;;;;;5034055;28;20079;-62
2023/04/04 07:05:50;;;;;;;57.78;27.63;;;2.50;99.90;;;;;;5018805;28;20040;-61
2023/04/04 07:08:15;;;;;;;34.20;17.17;;;2.60;99.90;;;;;;5033851;28;20473;-61
2023/04/04 07:10:41;;;;;;;19.70;9.85;;;2.60;99.90;;;;;;5052775;28;20366;-61
2023/04/04 07:13:07;;;;;;;31.30;13.80;;;2.60;99.90;;;;;;5048229;28;20083;-61
2023/04/04 07:15:32;;;;;;;12.43;5.18;;;2.70;99.90;;;;;;5014120;28;20044;-62
2023/04/04 07:17:58;;;;;;;9.35;4.00;;;2.70;99.90;;;;;;5015034;28;20102;-61
2023/04/04 07:20:25;;;;;;;88.82;31.75;;;2.80;99.90;;;;;;5031138;28;20042;-62
2023/04/04 07:22:51;;;;;;;98.78;38.53;;;2.90;99.90;;;;;;5011633;28;20045;-62
2023/04/04 07:25:17;;;;;;;69.68;27.35;;;3.00;99.90;;;;;;4995383;28;20064;-62
2023/04/04 07:27:42;;;;;;;30.10;14.38;;;3.10;99.90;;;;;;5021523;28;20048;-61
2023/04/04 07:30:09;;;;;;;41.78;15.32;;;3.10;99.90;;;;;;5031386;28;20068;-62
2023/04/04 07:32:37;;;;;;;46.92;17.00;;;3.20;99.90;;;;;;5014922;28;20049;-61
2023/04/04 07:35:04;;;;;;;243.05;89.65;;;3.30;99.90;;;;;;5031351;28;20079;-62
2023/04/04 07:37:29;;;;;;;130.60;49.72;;;3.40;99.90;;;;;;5046362;28;20045;-62
2023/04/04 07:39:55;;;;;;;37.42;13.23;;;3.50;99.90;;;;;;5049386;28;20098;-62
2023/04/04 07:42:24;;;;;;;19.17;6.95;;;3.60;99.90;;;;;;5024953;28;20522;-61
2023/04/04 07:44:50;;;;;;;23.23;10.80;;;3.70;99.90;;;;;;5030086;28;20517;-61
2023/04/04 07:47:17;;;;;;;12.63;5.80;;;3.80;99.90;;;;;;5048834;28;20123;-62
2023/04/04 07:49:43;;;;;;;17.77;11.40;;;4.00;99.90;;;;;;5030257;28;20045;-62
2023/04/04 07:52:08;;;;;;;8.50;5.38;;;4.20;99.90;;;;;;5045538;28;20045;-62
2023/04/04 07:54:35;;;;;;;9.63;4.45;;;4.40;99.90;;;;;;5024645;28;20588;-62
2023/04/04 07:57:04;;;;;;;7.53;3.92;;;4.60;99.90;;;;;;4999501;28;20498;-62
2023/04/04 07:59:30;;;;;;;10.30;3.60;;;4.70;99.90;;;;;;5042344;28;20045;-62
2023/04/04 08:01:56;;;;;;;6.03;2.80;;;4.80;99.90;;;;;;5044965;28;20082;-62
2023/04/04 08:04:22;;;;;;;6.30;2.60;;;4.90;99.90;;;;;;5036448;28;20041;-62
2023/04/04 08:06:47;;;;;;;8.73;3.17;;;4.90;99.90;;;;;;5020184;28;20060;-62
2023/04/04 08:09:13;;;;;;;5.10;2.53;;;4.90;99.90;;;;;;5025100;28;20389;-62
2023/04/04 08:11:38;;;;;;;7.15;3.30;;;4.90;99.90;;;;;;5025109;28;20044;-62
2023/04/04 08:14:04;;;;;;;7.68;3.05;;;4.80;99.90;;;;;;5037727;28;20053;-62
2023/04/04 08:16:30;;;;;;;8.00;2.20;;;4.90;99.90;;;;;;5030147;28;20044;-62
2023/04/04 08:18:56;;;;;;;9.27;3.13;;;5.00;99.90;;;;;;5036981;28;20343;-61
2023/04/04 08:21:22;;;;;;;6.45;2.63;;;5.10;99.90;;;;;;5036837;28;20087;-62
2023/04/04 08:23:47;;;;;;;6.28;2.90;;;5.20;99.90;;;;;;5038396;28;20039;-61
2023/04/04 08:26:13;;;;;;;6.60;2.50;;;5.20;99.90;;;;;;5001678;28;20545;-62
2023/04/04 08:28:39;;;;;;;6.55;2.70;;;5.30;99.90;;;;;;5035983;28;20458;-62
2023/04/04 08:31:04;;;;;;;6.32;2.70;;;5.40;99.90;;;;;;5027840;28;20045;-62
2023/04/04 08:33:30;;;;;;;6.53;2.75;;;5.50;99.90;;;;;;5006862;28;20061;-62
2023/04/04 08:35:57;;;;;;;5.63;2.50;;;5.60;99.90;;;;;;5016144;28;20382;-62
2023/04/04 08:38:22;;;;;;;5.63;2.75;;;5.70;99.90;;;;;;5040219;28;20037;-62
2023/04/04 08:40:48;;;;;;;5.43;2.28;;;5.80;99.90;;;;;;5030716;28;20043;-62
2023/04/04 08:43:15;;;;;;;5.95;2.65;;;5.80;99.90;;;;;;5017956;28;20057;-62
2023/04/04 08:45:43;;;;;;;7.25;2.92;;;5.90;99.90;;;;;;5018007;28;20410;-61
2023/04/04 08:48:11;;;;;;;6.72;2.70;;;6.00;99.90;;;;;;5035195;28;20063;-61
2023/04/04 08:50:41;;;;;;;78.13;33.97;;;6.00;99.90;;;;;;5050935;28;20391;-63
2023/04/04 08:53:09;;;;;;;15.10;6.35;;;6.10;99.90;;;;;;5051073;28;20053;-62
2023/04/04 08:55:35;;;;;;;7.72;3.67;;;6.10;99.90;;;;;;5050971;28;20045;-62
2023/04/04 08:58:01;;;;;;;10.63;3.67;;;6.20;99.90;;;;;;5043641;28;20048;-63
2023/04/04 09:00:28;;;;;;;7.15;3.00;;;6.20;99.90;;;;;;5027083;28;20402;-62
2023/04/04 09:03:00;;;;;;;7.15;3.67;;;6.30;99.90;;;;;;5031779;28;20037;-62
2023/04/04 09:05:26;;;;;;;6.10;3.13;;;6.40;99.90;;;;;;5053138;28;20124;-62
2023/04/04 09:07:53;;;;;;;7.22;2.63;;;6.40;99.90;;;;;;5055073;28;20508;-63
2023/04/04 09:10:20;;;;;;;7.80;3.05;;;6.40;99.90;;;;;;5026151;28;20128;-61
2023/04/04 09:12:47;;;;;;;5.70;2.33;;;6.60;99.90;;;;;;5042229;28;20091;-61
2023/04/04 09:15:13;;;;;;;17.02;7.47;;;6.60;99.90;;;;;;5034948;28;20037;-62
2023/04/04 09:17:39;;;;;;;6.95;3.72;;;6.60;99.90;;;;;;5036236;28;20474;-62
2023/04/04 09:20:36;;;;;;;7.57;2.60;;;6.60;99.90;;;;;;5019455;28;20047;-62
2023/04/04 09:23:16;;;;;;;6.90;2.78;;;6.60;99.90;;;;;;5052817;28;20116;-62
2023/04/04 09:25:51;;;;;;;6.97;2.58;;;6.70;99.90;;;;;;5053970;28;20059;-61
2023/04/04 09:28:18;;;;;;;6.78;2.50;;;6.70;99.90;;;;;;5035192;28;20041;-61
2023/04/04 09:30:47;;;;;;;9.02;2.83;;;6.90;99.90;;;;;;5018739;28;20040;-61
2023/04/04 09:33:14;;;;;;;8.02;2.33;;;7.00;99.90;;;;;;5019950;28;20047;-62
2023/04/04 09:35:44;;;;;;;4.80;1.90;;;7.00;99.90;;;;;;5035835;28;20049;-62
2023/04/04 09:38:10;;;;;;;6.45;2.20;;;7.10;99.80;;;;;;5054171;28;20045;-62
2023/04/04 09:40:36;;;;;;;6.00;2.13;;;7.10;99.70;;;;;;5036282;28;20098;-62
2023/04/04 09:43:06;;;;;;;6.03;2.30;;;7.20;99.70;;;;;;5053170;28;20371;-62
2023/04/04 09:45:34;;;;;;;7.10;2.38;;;7.30;99.40;;;;;;5036232;28;20128;-62
2023/04/04 09:48:01;;;;;;;6.97;2.10;;;7.30;98.50;;;;;;5036736;28;20380;-62
2023/04/04 09:50:29;;;;;;;6.60;2.30;;;7.30;98.30;;;;;;5053158;28;20045;-62
2023/04/04 09:52:58;;;;;;;7.60;2.70;;;7.30;97.90;;;;;;5036400;28;20037;-62
2023/04/04 09:55:36;;;;;;;4.03;1.80;;;7.30;97.00;;;;;;5036012;28;20147;-62
2023/04/04 09:58:15;;;;;;;5.45;1.98;;;7.30;95.70;;;;;;5035195;28;20127;-62
2023/04/04 10:00:47;;;;;;;6.15;2.42;;;7.30;95.50;;;;;;5054495;28;20114;-61
2023/04/04 10:03:14;;;;;;;5.07;2.08;;;7.30;95.90;;;;;;5035929;28;20095;-62
2023/04/04 10:05:40;;;;;;;5.38;2.05;;;7.40;95.80;;;;;;5035282;28;20552;-62
2023/04/04 10:08:21;;;;;;;6.18;1.88;;;7.40;94.80;;;;;;5036085;28;20095;-61
2023/04/04 10:10:51;;;;;;;6.30;2.90;;;7.40;93.90;;;;;;5018744;28;20037;-62
2023/04/04 10:13:29;;;;;;;6.97;3.05;;;7.40;94.50;;;;;;5035378;28;20045;-62
2023/04/04 10:15:57;;;;;;;7.18;2.30;;;7.50;93.80;;;;;;5053869;28;20044;-62
2023/04/04 10:18:25;;;;;;;7.35;2.63;;;7.70;94.20;;;;;;5017977;28;20056;-62
2023/04/04 10:20:51;;;;;;;5.20;2.58;;;7.70;93.70;;;;;;5035860;28;20498;-62
2023/04/04 10:23:18;;;;;;;5.80;2.88;;;7.80;93.80;;;;;;5018799;28;20041;-62
2023/04/04 10:25:44;;;;;;;6.88;3.55;;;7.90;93.90;;;;;;5018443;28;20375;-62
2023/04/04 10:28:13;;;;;;;7.65;3.70;;;8.00;94.10;;;;;;5035432;28;20048;-61
2023/04/04 10:30:43;;;;;;;6.63;3.38;;;8.10;94.20;;;;;;5053242;28;20041;-62
2023/04/04 10:33:16;;;;;;;5.95;3.65;;;8.30;94.60;;;;;;5052373;28;20063;-62
2023/04/04 10:35:46;;;;;;;6.53;3.40;;;8.40;94.10;;;;;;5035845;28;20080;-62
2023/04/04 10:38:12;;;;;;;6.55;3.15;;;8.40;93.90;;;;;;5053165;28;20041;-62
2023/04/04 10:40:42;;;;;;;6.25;2.70;;;8.50;93.60;;;;;;5052328;28;20505;-62
2023/04/04 10:43:10;;;;;;;7.00;3.42;;;8.60;94.10;;;;;;5035039;28;20053;-62
2023/04/04 10:45:38;;;;;;;5.32;2.92;;;8.70;93.70;;;;;;5018711;28;20062;-62
2023/04/04 10:48:05;;;;;;;5.50;2.50;;;8.80;93.30;;;;;;5017886;28;20397;-62
2023/04/04 10:50:33;;;;;;;7.78;3.75;;;8.80;93.10;;;;;;5052914;28;20120;-62
2023/04/04 10:53:00;;;;;;;7.88;3.63;;;8.80;92.70;;;;;;5034705;28;20398;-62
2023/04/04 10:55:28;;;;;;;7.38;3.78;;;8.80;92.00;;;;;;5034910;28;20045;-62
2023/04/04 10:57:54;;;;;;;7.57;3.80;;;8.70;91.90;;;;;;5035123;28;20517;-62
2023/04/04 11:00:26;;;;;;;6.13;2.75;;;8.70;92.30;;;;;;5033932;28;20048;-62
2023/04/04 11:02:51;;;;;;;6.15;3.15;;;8.80;91.20;;;;;;5035131;28;20041;-62
2023/04/04 11:05:45;;;;;;;8.60;3.05;;;8.80;91.90;;;;;;5034421;28;20425;-62
2023/04/04 11:08:15;;;;;;;8.57;3.50;;;8.80;91.10;;;;;;5017578;28;20048;-62
2023/04/04 11:10:44;;;;;;;5.78;3.05;;;8.80;91.70;;;;;;5034816;28;20037;-61
2023/04/04 11:13:28;;;;;;;6.93;3.72;;;8.80;91.60;;;;;;5034584;28;20048;-62
2023/04/04 11:15:59;;;;;;;7.10;2.85;;;8.90;91.40;;;;;;5051986;28;20044;-62
2023/04/04 11:18:31;;;;;;;7.65;3.35;;;9.00;91.50;;;;;;5034454;28;20489;-61
2023/04/04 11:21:00;;;;;;;8.57;2.72;;;9.10;91.30;;;;;;5034781;28;20041;-62
2023/04/04 11:23:27;;;;;;;7.07;3.42;;;9.20;90.90;;;;;;5017797;28;20505;-61
2023/04/04 11:25:56;;;;;;;5.35;3.05;;;9.20;90.60;;;;;;5018222;28;20029;-62
2023/04/04 11:28:47;;;;;;;7.00;3.42;;;9.20;89.40;;;;;;5051169;28;20103;-61
2023/04/04 11:31:21;;;;;;;10.25;3.67;;;9.10;87.50;;;;;;5017681;28;20474;-61
2023/04/04 11:33:56;;;;;;;7.75;2.85;;;9.10;89.00;;;;;;5052618;28;20033;-62
2023/04/04 11:36:37;;;;;;;9.30;3.55;;;9.10;89.30;;;;;;5032911;28;20045;-62
2023/04/04 11:39:13;;;;;;;9.57;3.08;;;9.20;89.30;;;;;;5052039;28;20079;-62
2023/04/04 11:41:53;;;;;;;6.00;2.70;;;9.20;90.20;;;;;;5034447;28;20525;-61
2023/04/04 11:44:24;;;;;;;6.55;2.70;;;9.30;89.70;;;;;;5033058;28;20045;-62
2023/04/04 11:46:59;;;;;;;7.85;3.55;;;9.30;90.00;;;;;;5052329;28;20040;-62
2023/04/04 11:49:30;;;;;;;6.30;2.80;;;9.40;89.50;;;;;;5032961;28;20047;-62
2023/04/04 11:51:56;;;;;;;7.25;3.00;;;9.40;88.00;;;;;;5052224;28;20041;-62
2023/04/04 11:54:23;;;;;;;9.43;3.28;;;9.40;89.00;;;;;;5051453;28;20048;-62
2023/04/04 11:56:49;;;;;;;9.10;3.20;;;9.50;89.20;;;;;;5033382;28;20081;-62
2023/04/04 11:59:19;;;;;;;8.35;3.00;;;9.50;88.80;;;;;;5051474;28;20033;-62
2023/04/04 12:01:46;;;;;;;6.07;2.75;;;9.40;85.10;;;;;;5034372;28;20362;-62
2023/04/04 12:04:13;;;;;;;6.50;2.88;;;9.40;87.90;;;;;;5017032;28;20040;-62
2023/04/04 12:06:39;;;;;;;6.43;3.15;;;9.40;86.80;;;;;;5033939;28;20044;-62
2023/04/04 12:09:05;;;;;;;6.63;2.75;;;9.40;86.60;;;;;;5033836;28;20044;-62
2023/04/04 12:11:36;;;;;;;5.38;2.60;;;9.40;86.00;;;;;;5033144;28;20048;-62
2023/04/04 12:14:01;;;;;;;5.80;3.05;;;9.50;86.50;;;;;;5017406;28;20056;-62
2023/04/04 12:16:27;;;;;;;11.35;3.40;;;9.50;86.50;;;;;;5017332;28;20033;-62
2023/04/04 12:18:55;;;;;;;6.70;3.15;;;9.50;85.90;;;;;;5051189;28;20069;-61
2023/04/04 12:21:21;;;;;;;6.15;2.70;;;9.60;87.00;;;;;;5051129;28;20063;-62
2023/04/04 12:23:47;;;;;;;8.20;3.33;;;9.70;87.00;;;;;;5017723;28;20128;-62
2023/04/04 12:26:15;;;;;;;4.38;2.30;;;9.80;87.10;;;;;;5051038;28;20436;-62
2023/04/04 12:28:44;;;;;;;5.57;2.83;;;9.80;85.60;;;;;;5033884;28;20494;-62
2023/04/04 12:31:11;;;;;;;5.32;2.78;;;9.70;85.00;;;;;;5033690;28;20072;-62
2023/04/04 12:33:38;;;;;;;6.60;2.88;;;9.60;85.00;;;;;;5032883;28;20041;-62
2023/04/04 12:36:08;;;;;;;7.38;3.10;;;9.60;86.80;;;;;;5051338;28;20087;-62
2023/04/04 12:38:38;;;;;;;7.60;3.20;;;9.80;87.20;;;;;;5016180;28;20080;-62
2023/04/04 12:41:15;;;;;;;8.35;3.17;;;9.80;87.10;;;;;;5033889;28;20389;-62
2023/04/04 12:43:41;;;;;;;8.30;2.80;;;9.90;86.40;;;;;;5033843;28;20048;-62
2023/04/04 12:46:07;;;;;;;6.40;2.85;;;10.00;86.60;;;;;;5016428;28;20045;-62
2023/04/04 12:48:35;;;;;;;7.80;2.70;;;10.00;85.70;;;;;;5034659;28;20525;-62
2023/04/04 12:51:01;;;;;;;6.28;3.10;;;10.10;85.80;;;;;;5037289;28;20051;-62
2023/04/04 12:53:28;;;;;;;6.05;2.78;;;10.00;84.60;;;;;;5036611;28;20028;-62